Colonia Dora, Argentina
Current Conditions -  °F | °C
As of 3:00 AM on Saturday 29 Nov 2014 (Local Time) from SANT Reporting Station
Clear Clear  
Wind Chill: 79°   Ceiling: Unl
Heat Index: 83°   Visibility: 6mi
Dew Point: 77°   Wind: 5mph
Humidity: 94%   Direction: 360°N
Pressure: 29.65"   Gusts: NA
Location:  28.6°S, 62.95°W
Report Text: SANT 290600Z 36004KT 9999 26/25 Q1004
Loading
Personal Weather Stations






























Interactive Weather Map New forecast layout! Learn more

10-Day Weather Forecast

Advertisements
Track Severe Weather on mobile